Airfield :
LOGIN :

Register | Disclaimer

   EN    FR    IT 

 










Legend :    VFR   Marginal VFR   IFR   Intensive IFR   Very Intensive IFR
Visi :
Ceiling :
>= 8 km
>= 3000ft
5 to 8 km
1000 to 3000 ft
1500m to 5 km
500 to 1000 ft
800 to 1500m
200 to 500 ft
< 800m
< 200 ft
Symbols :   Thunderstorms  Fog  Heavy snow  Heavy precipitations  Wind > 20 kt
SIGMETs :     Misc.  Thunderstorms  Icing  Turbulence  Mountain Waves  Volcanic Ashes







- Airport Elevation : 400 ft
- IATA code : BNX


LQBK - Banja Luka

CURRENT METAR :
  • 220130Z 16008KT CAVOK 05/03 Q1024 NOSIG

EXPIRED METARs :
  • 220100Z 14005KT CAVOK 04/02 Q1025 NOSIG
  • 220030Z 33002KT CAVOK 04/02 Q1025 NOSIG
  • 220000Z 32002KT CAVOK 04/02 Q1025 NOSIG
  • 212330Z 35002KT CAVOK 04/02 Q1025 NOSIG
  • 212300Z 20003KT CAVOK 04/02 Q1025 NOSIG

TAF TAF LQBK
Valid from the 22 at 00:00 until the 23 at 00:00 UTC


212300Z 2200/2224 18004KT 9999 SCT040 TX10/2208Z TNM02/2224Z
PROB40
TEMPO 2202/2208 RA
BECMG 2206/2208 32010KT
TEMPO 2208/2220 3000 RA BKN014 OVC030
TEMPO 2214/2224 34015G25KT
PROB30
TEMPO 2215/2222 35020G35KT
No reported NOTAMs for that airfield.



MET'MAP, your aeronautical weather chart ! - Copyright ORBIFLY December 2007 - Disclaimer

ORBIFLY MET'MAP TEAM :

Programming & Development : Alexandra Zaïnal
Concept & Development : Baudouin d'Aumeries
Co-Development & Prog : Marc-Olivier Méhu
Technical & hardware support : Manuel Goepfert

Contact : metmap@orbifly.com




SOURCES & CREDITS :

   NOAA